sensor_id;sensor_type;location;lat;lon;timestamp;temperature;humidity
11836;DHT22;5977;51.972;7.640;2023-07-13T00:01:19;24.30;75.30
11836;DHT22;5977;51.972;7.640;2023-07-13T00:03:47;24.20;75.90
11836;DHT22;5977;51.972;7.640;2023-07-13T00:06:15;24.10;76.70
11836;DHT22;5977;51.972;7.640;2023-07-13T00:08:43;24.10;76.50
11836;DHT22;5977;51.972;7.640;2023-07-13T00:11:11;24.20;76.20
11836;DHT22;5977;51.972;7.640;2023-07-13T00:13:41;24.50;75.80
11836;DHT22;5977;51.972;7.640;2023-07-13T00:16:10;24.20;75.50
11836;DHT22;5977;51.972;7.640;2023-07-13T00:18:39;24.20;75.90
11836;DHT22;5977;51.972;7.640;2023-07-13T00:21:07;24.30;76.20
11836;DHT22;5977;51.972;7.640;2023-07-13T00:23:37;24.30;76.00
11836;DHT22;5977;51.972;7.640;2023-07-13T00:26:07;24.10;75.20
11836;DHT22;5977;51.972;7.640;2023-07-13T00:28:37;24.10;75.80
11836;DHT22;5977;51.972;7.640;2023-07-13T00:31:08;24.10;76.40
11836;DHT22;5977;51.972;7.640;2023-07-13T00:33:36;24.10;76.70
11836;DHT22;5977;51.972;7.640;2023-07-13T00:36:04;23.80;76.40
11836;DHT22;5977;51.972;7.640;2023-07-13T00:38:32;24.00;76.90
11836;DHT22;5977;51.972;7.640;2023-07-13T00:41:00;24.20;76.30
11836;DHT22;5977;51.972;7.640;2023-07-13T00:43:30;23.90;76.20
11836;DHT22;5977;51.972;7.640;2023-07-13T00:46:20;23.80;76.20
11836;DHT22;5977;51.972;7.640;2023-07-13T00:48:49;24.00;76.40
11836;DHT22;5977;51.972;7.640;2023-07-13T00:51:32;23.80;75.40
11836;DHT22;5977;51.972;7.640;2023-07-13T00:54:05;23.70;77.90
11836;DHT22;5977;51.972;7.640;2023-07-13T00:56:34;23.80;77.60
11836;DHT22;5977;51.972;7.640;2023-07-13T00:59:05;23.90;76.80
11836;DHT22;5977;51.972;7.640;2023-07-13T01:01:35;23.80;77.70
11836;DHT22;5977;51.972;7.640;2023-07-13T01:04:03;23.90;77.60
11836;DHT22;5977;51.972;7.640;2023-07-13T01:06:34;23.60;76.60
11836;DHT22;5977;51.972;7.640;2023-07-13T01:09:03;23.60;77.90
11836;DHT22;5977;51.972;7.640;2023-07-13T01:11:31;23.40;77.90
11836;DHT22;5977;51.972;7.640;2023-07-13T01:13:59;23.40;77.40
11836;DHT22;5977;51.972;7.640;2023-07-13T01:16:30;23.20;77.60
11836;DHT22;5977;51.972;7.640;2023-07-13T01:19:00;23.30;77.60
11836;DHT22;5977;51.972;7.640;2023-07-13T01:21:32;23.00;78.20
11836;DHT22;5977;51.972;7.640;2023-07-13T01:24:01;23.50;79.00
11836;DHT22;5977;51.972;7.640;2023-07-13T01:26:29;23.40;78.30
11836;DHT22;5977;51.972;7.640;2023-07-13T01:28:57;23.50;78.70
11836;DHT22;5977;51.972;7.640;2023-07-13T01:31:25;23.50;78.40
11836;DHT22;5977;51.972;7.640;2023-07-13T01:33:53;23.40;77.40
11836;DHT22;5977;51.972;7.640;2023-07-13T01:36:21;23.60;78.30
11836;DHT22;5977;51.972;7.640;2023-07-13T01:38:51;23.50;77.30
11836;DHT22;5977;51.972;7.640;2023-07-13T01:41:19;23.60;77.00
11836;DHT22;5977;51.972;7.640;2023-07-13T01:43:47;23.60;77.80
11836;DHT22;5977;51.972;7.640;2023-07-13T01:46:15;23.50;77.20
11836;DHT22;5977;51.972;7.640;2023-07-13T01:48:49;23.30;78.00
11836;DHT22;5977;51.972;7.640;2023-07-13T01:51:19;23.60;77.90
11836;DHT22;5977;51.972;7.640;2023-07-13T01:53:47;23.30;77.60
11836;DHT22;5977;51.972;7.640;2023-07-13T01:56:17;23.60;78.40
11836;DHT22;5977;51.972;7.640;2023-07-13T01:58:45;23.70;78.60
11836;DHT22;5977;51.972;7.640;2023-07-13T02:01:13;23.50;78.00
11836;DHT22;5977;51.972;7.640;2023-07-13T02:03:41;23.60;78.00
11836;DHT22;5977;51.972;7.640;2023-07-13T02:06:09;23.80;77.70
11836;DHT22;5977;51.972;7.640;2023-07-13T02:08:38;23.70;78.90
11836;DHT22;5977;51.972;7.640;2023-07-13T02:11:06;23.50;77.60
11836;DHT22;5977;51.972;7.640;2023-07-13T02:13:35;23.30;77.70
11836;DHT22;5977;51.972;7.640;2023-07-13T02:16:03;23.50;77.70
11836;DHT22;5977;51.972;7.640;2023-07-13T02:18:31;23.60;77.80
11836;DHT22;5977;51.972;7.640;2023-07-13T02:20:59;23.40;77.20
11836;DHT22;5977;51.972;7.640;2023-07-13T02:23:27;23.50;77.20
11836;DHT22;5977;51.972;7.640;2023-07-13T02:25:55;23.60;77.40
11836;DHT22;5977;51.972;7.640;2023-07-13T02:28:24;23.50;77.20
11836;DHT22;5977;51.972;7.640;2023-07-13T02:30:53;23.00;77.40
11836;DHT22;5977;51.972;7.640;2023-07-13T02:33:21;23.00;78.80
11836;DHT22;5977;51.972;7.640;2023-07-13T02:35:49;22.90;78.40
11836;DHT22;5977;51.972;7.640;2023-07-13T02:38:18;23.10;78.20
11836;DHT22;5977;51.972;7.640;2023-07-13T02:40:47;23.20;77.70
11836;DHT22;5977;51.972;7.640;2023-07-13T02:43:15;23.20;78.30
11836;DHT22;5977;51.972;7.640;2023-07-13T02:45:43;22.90;79.20
11836;DHT22;5977;51.972;7.640;2023-07-13T02:48:13;23.10;78.60
11836;DHT22;5977;51.972;7.640;2023-07-13T02:50:42;23.10;78.70
11836;DHT22;5977;51.972;7.640;2023-07-13T02:53:11;23.30;78.10
11836;DHT22;5977;51.972;7.640;2023-07-13T02:55:39;23.30;77.60
11836;DHT22;5977;51.972;7.640;2023-07-13T02:58:14;23.20;77.30
11836;DHT22;5977;51.972;7.640;2023-07-13T03:00:43;23.40;76.80
11836;DHT22;5977;51.972;7.640;2023-07-13T03:03:14;23.30;76.60
11836;DHT22;5977;51.972;7.640;2023-07-13T03:05:44;23.20;75.70
11836;DHT22;5977;51.972;7.640;2023-07-13T03:08:21;23.00;77.30
11836;DHT22;5977;51.972;7.640;2023-07-13T03:10:59;23.10;76.60
11836;DHT22;5977;51.972;7.640;2023-07-13T03:13:30;23.10;75.90
11836;DHT22;5977;51.972;7.640;2023-07-13T03:15:58;22.80;76.20
11836;DHT22;5977;51.972;7.640;2023-07-13T03:18:28;22.90;76.60
11836;DHT22;5977;51.972;7.640;2023-07-13T03:21:00;22.90;76.50
11836;DHT22;5977;51.972;7.640;2023-07-13T03:23:28;22.90;76.10
11836;DHT22;5977;51.972;7.640;2023-07-13T03:26:04;22.90;76.30
11836;DHT22;5977;51.972;7.640;2023-07-13T03:28:33;22.80;75.40
11836;DHT22;5977;51.972;7.640;2023-07-13T03:31:04;23.00;76.80
11836;DHT22;5977;51.972;7.640;2023-07-13T03:33:34;22.90;75.30
11836;DHT22;5977;51.972;7.640;2023-07-13T03:36:03;22.90;75.20
11836;DHT22;5977;51.972;7.640;2023-07-13T03:38:32;23.00;75.30
11836;DHT22;5977;51.972;7.640;2023-07-13T03:41:02;23.10;75.50
11836;DHT22;5977;51.972;7.640;2023-07-13T03:43:30;23.20;75.20
11836;DHT22;5977;51.972;7.640;2023-07-13T03:45:58;23.00;75.70
11836;DHT22;5977;51.972;7.640;2023-07-13T03:48:26;22.90;75.10
11836;DHT22;5977;51.972;7.640;2023-07-13T03:50:55;23.00;75.70
11836;DHT22;5977;51.972;7.640;2023-07-13T03:53:23;22.90;75.50
11836;DHT22;5977;51.972;7.640;2023-07-13T03:55:51;23.00;74.90
11836;DHT22;5977;51.972;7.640;2023-07-13T03:58:25;23.10;75.90
11836;DHT22;5977;51.972;7.640;2023-07-13T04:00:57;23.20;74.80
11836;DHT22;5977;51.972;7.640;2023-07-13T04:03:26;23.20;74.80
11836;DHT22;5977;51.972;7.640;2023-07-13T04:05:56;23.30;75.10
11836;DHT22;5977;51.972;7.640;2023-07-13T04:08:27;23.30;75.00
11836;DHT22;5977;51.972;7.640;2023-07-13T04:10:54;23.10;74.60
11836;DHT22;5977;51.972;7.640;2023-07-13T04:13:23;23.10;74.80
11836;DHT22;5977;51.972;7.640;2023-07-13T04:15:52;23.10;75.40
11836;DHT22;5977;51.972;7.640;2023-07-13T04:18:20;23.10;75.30
11836;DHT22;5977;51.972;7.640;2023-07-13T04:20:49;23.10;75.20
11836;DHT22;5977;51.972;7.640;2023-07-13T04:23:19;23.10;74.60
11836;DHT22;5977;51.972;7.640;2023-07-13T04:25:48;23.30;74.40
11836;DHT22;5977;51.972;7.640;2023-07-13T04:28:16;23.40;74.20
11836;DHT22;5977;51.972;7.640;2023-07-13T04:30:44;23.40;73.60
11836;DHT22;5977;51.972;7.640;2023-07-13T04:33:14;23.20;73.60
11836;DHT22;5977;51.972;7.640;2023-07-13T04:35:44;23.20;73.90
11836;DHT22;5977;51.972;7.640;2023-07-13T04:38:13;23.40;74.10
11836;DHT22;5977;51.972;7.640;2023-07-13T04:40:44;23.30;74.20
11836;DHT22;5977;51.972;7.640;2023-07-13T04:43:13;23.50;73.80
11836;DHT22;5977;51.972;7.640;2023-07-13T04:45:41;23.60;73.40
11836;DHT22;5977;51.972;7.640;2023-07-13T04:48:09;24.50;71.60
11836;DHT22;5977;51.972;7.640;2023-07-13T04:50:37;24.90;69.30
11836;DHT22;5977;51.972;7.640;2023-07-13T04:53:05;25.20;67.60
11836;DHT22;5977;51.972;7.640;2023-07-13T04:55:33;25.50;67.80
11836;DHT22;5977;51.972;7.640;2023-07-13T04:58:02;25.90;67.00
11836;DHT22;5977;51.972;7.640;2023-07-13T05:00:31;25.90;65.90
11836;DHT22;5977;51.972;7.640;2023-07-13T05:02:59;26.20;65.50
11836;DHT22;5977;51.972;7.640;2023-07-13T05:05:27;26.40;64.80
11836;DHT22;5977;51.972;7.640;2023-07-13T05:07:55;25.70;65.40
11836;DHT22;5977;51.972;7.640;2023-07-13T05:10:23;25.00;68.40
11836;DHT22;5977;51.972;7.640;2023-07-13T05:12:51;24.40;69.70
11836;DHT22;5977;51.972;7.640;2023-07-13T05:15:22;24.00;71.00
11836;DHT22;5977;51.972;7.640;2023-07-13T05:17:52;23.70;72.20
11836;DHT22;5977;51.972;7.640;2023-07-13T05:20:20;23.50;72.40
11836;DHT22;5977;51.972;7.640;2023-07-13T05:22:47;23.70;73.10
11836;DHT22;5977;51.972;7.640;2023-07-13T05:25:17;23.50;72.90
11836;DHT22;5977;51.972;7.640;2023-07-13T05:27:45;23.60;73.30
11836;DHT22;5977;51.972;7.640;2023-07-13T05:30:14;23.50;72.90
11836;DHT22;5977;51.972;7.640;2023-07-13T05:32:43;23.30;73.40
11836;DHT22;5977;51.972;7.640;2023-07-13T05:35:12;23.30;74.00
11836;DHT22;5977;51.972;7.640;2023-07-13T05:37:40;23.30;74.80
11836;DHT22;5977;51.972;7.640;2023-07-13T05:40:08;23.40;74.20
11836;DHT22;5977;51.972;7.640;2023-07-13T05:42:36;23.30;74.40
11836;DHT22;5977;51.972;7.640;2023-07-13T05:45:05;23.60;74.40
11836;DHT22;5977;51.972;7.640;2023-07-13T05:47:33;23.50;74.30
11836;DHT22;5977;51.972;7.640;2023-07-13T05:50:02;23.50;74.20
11836;DHT22;5977;51.972;7.640;2023-07-13T05:52:32;23.60;73.90
11836;DHT22;5977;51.972;7.640;2023-07-13T05:55:00;23.70;73.80
11836;DHT22;5977;51.972;7.640;2023-07-13T05:57:28;23.70;74.00
11836;DHT22;5977;51.972;7.640;2023-07-13T05:59:56;23.90;73.60
11836;DHT22;5977;51.972;7.640;2023-07-13T06:02:24;23.90;73.30
11836;DHT22;5977;51.972;7.640;2023-07-13T06:04:52;23.70;73.80
11836;DHT22;5977;51.972;7.640;2023-07-13T06:07:21;23.70;73.90
11836;DHT22;5977;51.972;7.640;2023-07-13T06:09:49;23.70;74.20
11836;DHT22;5977;51.972;7.640;2023-07-13T06:12:18;23.50;74.90
11836;DHT22;5977;51.972;7.640;2023-07-13T06:14:46;23.60;74.60
11836;DHT22;5977;51.972;7.640;2023-07-13T06:17:13;23.60;74.70
11836;DHT22;5977;51.972;7.640;2023-07-13T06:19:41;23.50;74.50
11836;DHT22;5977;51.972;7.640;2023-07-13T06:22:09;23.30;76.00
11836;DHT22;5977;51.972;7.640;2023-07-13T06:24:39;23.20;75.60
11836;DHT22;5977;51.972;7.640;2023-07-13T06:27:07;23.40;75.60
11836;DHT22;5977;51.972;7.640;2023-07-13T06:29:35;23.10;76.20
11836;DHT22;5977;51.972;7.640;2023-07-13T06:32:03;23.20;76.40
11836;DHT22;5977;51.972;7.640;2023-07-13T06:34:31;23.30;76.40
11836;DHT22;5977;51.972;7.640;2023-07-13T06:36:59;23.40;75.70
11836;DHT22;5977;51.972;7.640;2023-07-13T06:39:27;23.30;75.70
11836;DHT22;5977;51.972;7.640;2023-07-13T06:41:56;23.30;76.00
11836;DHT22;5977;51.972;7.640;2023-07-13T06:44:24;23.50;76.00
11836;DHT22;5977;51.972;7.640;2023-07-13T06:46:52;23.70;75.70
11836;DHT22;5977;51.972;7.640;2023-07-13T06:49:20;23.60;75.60
11836;DHT22;5977;51.972;7.640;2023-07-13T06:51:48;23.70;75.00
11836;DHT22;5977;51.972;7.640;2023-07-13T06:54:16;23.70;75.00
11836;DHT22;5977;51.972;7.640;2023-07-13T06:56:44;23.70;75.00
11836;DHT22;5977;51.972;7.640;2023-07-13T06:59:13;23.80;74.90
11836;DHT22;5977;51.972;7.640;2023-07-13T07:01:41;23.70;75.00
11836;DHT22;5977;51.972;7.640;2023-07-13T07:04:09;23.80;75.10
11836;DHT22;5977;51.972;7.640;2023-07-13T07:06:37;23.80;75.10
11836;DHT22;5977;51.972;7.640;2023-07-13T07:09:05;24.00;74.50
11836;DHT22;5977;51.972;7.640;2023-07-13T07:11:33;23.90;74.90
11836;DHT22;5977;51.972;7.640;2023-07-13T07:14:00;24.00;74.70
11836;DHT22;5977;51.972;7.640;2023-07-13T07:16:30;23.80;74.60
11836;DHT22;5977;51.972;7.640;2023-07-13T07:18:58;24.10;74.40
11836;DHT22;5977;51.972;7.640;2023-07-13T07:21:26;24.00;74.10
11836;DHT22;5977;51.972;7.640;2023-07-13T07:23:53;24.00;74.20
11836;DHT22;5977;51.972;7.640;2023-07-13T07:26:21;24.00;74.40
11836;DHT22;5977;51.972;7.640;2023-07-13T07:28:53;23.90;74.50
11836;DHT22;5977;51.972;7.640;2023-07-13T07:31:42;24.00;74.60
11836;DHT22;5977;51.972;7.640;2023-07-13T07:34:13;24.20;74.20
11836;DHT22;5977;51.972;7.640;2023-07-13T07:36:41;24.00;74.80
11836;DHT22;5977;51.972;7.640;2023-07-13T07:39:12;24.10;75.00
11836;DHT22;5977;51.972;7.640;2023-07-13T07:41:40;24.10;74.60
11836;DHT22;5977;51.972;7.640;2023-07-13T07:44:23;24.20;74.90
11836;DHT22;5977;51.972;7.640;2023-07-13T07:46:52;24.00;74.90
11836;DHT22;5977;51.972;7.640;2023-07-13T07:49:20;24.20;74.90
11836;DHT22;5977;51.972;7.640;2023-07-13T07:51:48;24.30;74.60
11836;DHT22;5977;51.972;7.640;2023-07-13T07:54:16;24.30;74.30
11836;DHT22;5977;51.972;7.640;2023-07-13T07:57:06;24.20;74.50
11836;DHT22;5977;51.972;7.640;2023-07-13T07:59:37;24.50;74.10
11836;DHT22;5977;51.972;7.640;2023-07-13T08:02:10;24.50;74.20
11836;DHT22;5977;51.972;7.640;2023-07-13T08:04:58;24.30;74.30
11836;DHT22;5977;51.972;7.640;2023-07-13T08:07:30;24.50;74.20
11836;DHT22;5977;51.972;7.640;2023-07-13T08:09:59;24.40;74.70
11836;DHT22;5977;51.972;7.640;2023-07-13T08:12:27;24.40;74.40
11836;DHT22;5977;51.972;7.640;2023-07-13T08:14:57;24.40;74.40
11836;DHT22;5977;51.972;7.640;2023-07-13T08:17:28;24.50;74.50
11836;DHT22;5977;51.972;7.640;2023-07-13T08:19:56;24.90;73.50
11836;DHT22;5977;51.972;7.640;2023-07-13T08:22:24;25.50;72.40
11836;DHT22;5977;51.972;7.640;2023-07-13T08:24:53;26.10;70.80
11836;DHT22;5977;51.972;7.640;2023-07-13T08:27:24;26.20;70.30
11836;DHT22;5977;51.972;7.640;2023-07-13T08:29:52;26.70;68.80
11836;DHT22;5977;51.972;7.640;2023-07-13T08:32:24;27.10;67.90
11836;DHT22;5977;51.972;7.640;2023-07-13T08:34:53;27.20;67.50
11836;DHT22;5977;51.972;7.640;2023-07-13T08:37:21;27.30;67.10
11836;DHT22;5977;51.972;7.640;2023-07-13T08:39:49;27.40;66.50
11836;DHT22;5977;51.972;7.640;2023-07-13T08:42:26;27.40;66.30
11836;DHT22;5977;51.972;7.640;2023-07-13T08:45:03;27.70;65.40
11836;DHT22;5977;51.972;7.640;2023-07-13T08:47:39;28.00;64.90
11836;DHT22;5977;51.972;7.640;2023-07-13T08:50:13;28.10;64.10
11836;DHT22;5977;51.972;7.640;2023-07-13T08:52:44;28.30;64.10
11836;DHT22;5977;51.972;7.640;2023-07-13T08:55:15;28.20;63.60
11836;DHT22;5977;51.972;7.640;2023-07-13T08:57:48;28.30;63.50
11836;DHT22;5977;51.972;7.640;2023-07-13T09:00:19;28.30;63.30
11836;DHT22;5977;51.972;7.640;2023-07-13T09:02:54;28.40;63.60
11836;DHT22;5977;51.972;7.640;2023-07-13T09:05:28;28.50;63.20
11836;DHT22;5977;51.972;7.640;2023-07-13T09:08:07;28.50;62.70
11836;DHT22;5977;51.972;7.640;2023-07-13T09:10:44;28.20;63.20
11836;DHT22;5977;51.972;7.640;2023-07-13T09:13:22;28.40;63.40
11836;DHT22;5977;51.972;7.640;2023-07-13T09:15:52;28.50;62.90
11836;DHT22;5977;51.972;7.640;2023-07-13T09:18:26;28.60;62.70
11836;DHT22;5977;51.972;7.640;2023-07-13T09:21:00;28.60;62.70
11836;DHT22;5977;51.972;7.640;2023-07-13T09:23:30;28.30;63.00
11836;DHT22;5977;51.972;7.640;2023-07-13T09:26:02;28.10;63.50
11836;DHT22;5977;51.972;7.640;2023-07-13T09:28:37;27.80;63.70
11836;DHT22;5977;51.972;7.640;2023-07-13T09:31:09;27.90;63.50
11836;DHT22;5977;51.972;7.640;2023-07-13T09:33:39;27.60;64.60
11836;DHT22;5977;51.972;7.640;2023-07-13T09:36:20;27.40;65.10
11836;DHT22;5977;51.972;7.640;2023-07-13T09:39:10;27.10;65.10
11836;DHT22;5977;51.972;7.640;2023-07-13T09:41:47;27.10;66.20
11836;DHT22;5977;51.972;7.640;2023-07-13T09:44:18;26.80;66.20
11836;DHT22;5977;51.972;7.640;2023-07-13T09:46:55;26.90;67.00
11836;DHT22;5977;51.972;7.640;2023-07-13T09:49:24;26.90;67.00
11836;DHT22;5977;51.972;7.640;2023-07-13T09:52:00;26.90;67.00
11836;DHT22;5977;51.972;7.640;2023-07-13T09:54:28;27.10;66.50
11836;DHT22;5977;51.972;7.640;2023-07-13T09:56:58;27.30;66.30
11836;DHT22;5977;51.972;7.640;2023-07-13T09:59:29;27.40;66.20
11836;DHT22;5977;51.972;7.640;2023-07-13T10:01:57;27.50;65.30
11836;DHT22;5977;51.972;7.640;2023-07-13T10:04:30;27.30;66.00
11836;DHT22;5977;51.972;7.640;2023-07-13T10:07:07;27.10;66.00
11836;DHT22;5977;51.972;7.640;2023-07-13T10:09:54;26.90;66.10
11836;DHT22;5977;51.972;7.640;2023-07-13T10:12:22;26.60;66.80
11836;DHT22;5977;51.972;7.640;2023-07-13T10:14:52;26.40;66.80
11836;DHT22;5977;51.972;7.640;2023-07-13T10:17:34;26.20;67.50
11836;DHT22;5977;51.972;7.640;2023-07-13T10:20:05;26.30;67.80
11836;DHT22;5977;51.972;7.640;2023-07-13T10:22:44;26.10;67.80
11836;DHT22;5977;51.972;7.640;2023-07-13T10:25:19;26.10;68.00
11836;DHT22;5977;51.972;7.640;2023-07-13T10:27:50;26.10;68.20
11836;DHT22;5977;51.972;7.640;2023-07-13T10:30:22;26.10;68.10
11836;DHT22;5977;51.972;7.640;2023-07-13T10:32:52;26.10;68.00
11836;DHT22;5977;51.972;7.640;2023-07-13T10:35:21;25.90;68.30
11836;DHT22;5977;51.972;7.640;2023-07-13T10:37:53;25.90;69.00
11836;DHT22;5977;51.972;7.640;2023-07-13T10:40:28;25.90;68.70
11836;DHT22;5977;51.972;7.640;2023-07-13T10:42:59;25.90;68.20
11836;DHT22;5977;51.972;7.640;2023-07-13T10:45:31;26.10;68.60
11836;DHT22;5977;51.972;7.640;2023-07-13T10:48:02;26.40;68.10
11836;DHT22;5977;51.972;7.640;2023-07-13T10:50:31;26.40;67.80
11836;DHT22;5977;51.972;7.640;2023-07-13T10:53:15;26.30;67.50
11836;DHT22;5977;51.972;7.640;2023-07-13T10:55:56;26.10;67.70
11836;DHT22;5977;51.972;7.640;2023-07-13T10:58:31;26.00;67.50
11836;DHT22;5977;51.972;7.640;2023-07-13T11:01:06;26.20;68.20
11836;DHT22;5977;51.972;7.640;2023-07-13T11:03:37;26.20;67.80
11836;DHT22;5977;51.972;7.640;2023-07-13T11:06:11;26.20;67.70
11836;DHT22;5977;51.972;7.640;2023-07-13T11:08:53;26.00;66.30
11836;DHT22;5977;51.972;7.640;2023-07-13T11:11:34;26.00;68.00
11836;DHT22;5977;51.972;7.640;2023-07-13T11:14:05;26.10;66.80
11836;DHT22;5977;51.972;7.640;2023-07-13T11:16:37;25.90;67.20
11836;DHT22;5977;51.972;7.640;2023-07-13T11:19:39;26.00;67.60
11836;DHT22;5977;51.972;7.640;2023-07-13T11:22:17;26.10;67.40
11836;DHT22;5977;51.972;7.640;2023-07-13T11:24:58;25.90;66.60
11836;DHT22;5977;51.972;7.640;2023-07-13T11:27:40;25.90;67.20
11836;DHT22;5977;51.972;7.640;2023-07-13T11:30:25;25.80;66.90
11836;DHT22;5977;51.972;7.640;2023-07-13T11:33:04;25.90;67.00
11836;DHT22;5977;51.972;7.640;2023-07-13T11:35:37;26.00;66.90
11836;DHT22;5977;51.972;7.640;2023-07-13T11:38:13;26.00;66.70
11836;DHT22;5977;51.972;7.640;2023-07-13T11:40:46;26.00;66.70
11836;DHT22;5977;51.972;7.640;2023-07-13T11:43:22;26.10;66.60
11836;DHT22;5977;51.972;7.640;2023-07-13T11:45:51;26.30;66.70
11836;DHT22;5977;51.972;7.640;2023-07-13T11:48:26;26.30;65.70
11836;DHT22;5977;51.972;7.640;2023-07-13T11:51:00;26.30;66.10
11836;DHT22;5977;51.972;7.640;2023-07-13T11:53:34;26.30;65.50
11836;DHT22;5977;51.972;7.640;2023-07-13T11:56:05;26.30;65.60
11836;DHT22;5977;51.972;7.640;2023-07-13T11:58:33;26.10;65.70
11836;DHT22;5977;51.972;7.640;2023-07-13T12:01:02;26.10;66.00
11836;DHT22;5977;51.972;7.640;2023-07-13T12:03:33;26.30;65.70
11836;DHT22;5977;51.972;7.640;2023-07-13T12:06:03;26.10;64.80
11836;DHT22;5977;51.972;7.640;2023-07-13T12:08:38;26.10;65.00
11836;DHT22;5977;51.972;7.640;2023-07-13T12:11:17;26.10;64.40
11836;DHT22;5977;51.972;7.640;2023-07-13T12:13:46;26.10;63.40
11836;DHT22;5977;51.972;7.640;2023-07-13T12:16:28;26.20;63.30
11836;DHT22;5977;51.972;7.640;2023-07-13T12:18:57;26.20;63.00
11836;DHT22;5977;51.972;7.640;2023-07-13T12:21:30;26.10;63.60
11836;DHT22;5977;51.972;7.640;2023-07-13T12:24:00;26.10;64.10
11836;DHT22;5977;51.972;7.640;2023-07-13T12:26:31;26.10;64.10
11836;DHT22;5977;51.972;7.640;2023-07-13T12:29:00;26.00;64.90
11836;DHT22;5977;51.972;7.640;2023-07-13T12:31:34;26.00;64.90
11836;DHT22;5977;51.972;7.640;2023-07-13T12:34:07;25.90;65.50
11836;DHT22;5977;51.972;7.640;2023-07-13T12:36:36;25.80;67.40
11836;DHT22;5977;51.972;7.640;2023-07-13T12:39:14;25.50;70.60
11836;DHT22;5977;51.972;7.640;2023-07-13T12:41:44;25.10;71.00
11836;DHT22;5977;51.972;7.640;2023-07-13T12:44:13;25.00;71.50
11836;DHT22;5977;51.972;7.640;2023-07-13T12:46:52;24.90;72.00
11836;DHT22;5977;51.972;7.640;2023-07-13T12:49:25;25.10;72.10
11836;DHT22;5977;51.972;7.640;2023-07-13T12:51:57;25.10;72.50
11836;DHT22;5977;51.972;7.640;2023-07-13T12:54:26;25.30;72.80
11836;DHT22;5977;51.972;7.640;2023-07-13T12:56:57;25.30;72.20
11836;DHT22;5977;51.972;7.640;2023-07-13T12:59:30;25.30;72.50
11836;DHT22;5977;51.972;7.640;2023-07-13T13:01:59;25.20;72.50
11836;DHT22;5977;51.972;7.640;2023-07-13T13:04:30;25.10;73.20
11836;DHT22;5977;51.972;7.640;2023-07-13T13:07:02;25.00;74.20
11836;DHT22;5977;51.972;7.640;2023-07-13T13:09:33;24.80;74.80
11836;DHT22;5977;51.972;7.640;2023-07-13T13:12:03;24.60;76.20
11836;DHT22;5977;51.972;7.640;2023-07-13T13:14:33;24.60;76.20
11836;DHT22;5977;51.972;7.640;2023-07-13T13:17:16;24.70;77.00
11836;DHT22;5977;51.972;7.640;2023-07-13T13:19:46;24.70;77.20
11836;DHT22;5977;51.972;7.640;2023-07-13T13:22:14;24.70;77.90
11836;DHT22;5977;51.972;7.640;2023-07-13T13:24:42;24.80;77.60
11836;DHT22;5977;51.972;7.640;2023-07-13T13:27:15;24.90;77.40
11836;DHT22;5977;51.972;7.640;2023-07-13T13:29:46;24.90;77.80
11836;DHT22;5977;51.972;7.640;2023-07-13T13:32:17;25.20;77.50
11836;DHT22;5977;51.972;7.640;2023-07-13T13:34:45;25.20;76.80
11836;DHT22;5977;51.972;7.640;2023-07-13T13:37:18;25.10;77.50
11836;DHT22;5977;51.972;7.640;2023-07-13T13:39:47;25.00;77.60
11836;DHT22;5977;51.972;7.640;2023-07-13T13:42:34;24.90;78.40
11836;DHT22;5977;51.972;7.640;2023-07-13T13:45:03;25.10;77.30
11836;DHT22;5977;51.972;7.640;2023-07-13T13:47:32;24.90;77.50
11836;DHT22;5977;51.972;7.640;2023-07-13T13:50:11;24.90;77.90
11836;DHT22;5977;51.972;7.640;2023-07-13T13:52:39;24.80;77.70
11836;DHT22;5977;51.972;7.640;2023-07-13T13:55:12;24.80;78.90
11836;DHT22;5977;51.972;7.640;2023-07-13T13:57:41;24.60;77.30
11836;DHT22;5977;51.972;7.640;2023-07-13T14:00:10;24.60;78.40
11836;DHT22;5977;51.972;7.640;2023-07-13T14:02:42;24.60;78.50
11836;DHT22;5977;51.972;7.640;2023-07-13T14:05:15;24.40;78.00
11836;DHT22;5977;51.972;7.640;2023-07-13T14:07:46;24.50;77.90
11836;DHT22;5977;51.972;7.640;2023-07-13T14:10:16;24.30;78.30
11836;DHT22;5977;51.972;7.640;2023-07-13T14:12:48;24.40;78.00
11836;DHT22;5977;51.972;7.640;2023-07-13T14:15:20;24.20;78.10
11836;DHT22;5977;51.972;7.640;2023-07-13T14:17:49;24.20;78.40
11836;DHT22;5977;51.972;7.640;2023-07-13T14:20:18;24.00;79.00
11836;DHT22;5977;51.972;7.640;2023-07-13T14:22:46;23.70;79.60
11836;DHT22;5977;51.972;7.640;2023-07-13T14:25:16;23.80;80.00
11836;DHT22;5977;51.972;7.640;2023-07-13T14:27:49;23.90;80.00
11836;DHT22;5977;51.972;7.640;2023-07-13T14:30:19;23.70;79.90
11836;DHT22;5977;51.972;7.640;2023-07-13T14:32:47;23.90;80.30
11836;DHT22;5977;51.972;7.640;2023-07-13T14:35:18;24.10;79.60
11836;DHT22;5977;51.972;7.640;2023-07-13T14:37:48;24.20;79.30
11836;DHT22;5977;51.972;7.640;2023-07-13T14:40:19;24.30;79.30
11836;DHT22;5977;51.972;7.640;2023-07-13T14:42:50;24.30;79.20
11836;DHT22;5977;51.972;7.640;2023-07-13T14:45:19;24.30;79.20
11836;DHT22;5977;51.972;7.640;2023-07-13T14:47:48;24.20;79.30
11836;DHT22;5977;51.972;7.640;2023-07-13T14:50:17;24.40;79.10
11836;DHT22;5977;51.972;7.640;2023-07-13T14:52:46;24.50;78.70
11836;DHT22;5977;51.972;7.640;2023-07-13T14:55:17;24.80;78.80
11836;DHT22;5977;51.972;7.640;2023-07-13T14:57:46;24.60;78.50
11836;DHT22;5977;51.972;7.640;2023-07-13T15:00:17;24.40;78.20
11836;DHT22;5977;51.972;7.640;2023-07-13T15:02:48;24.50;78.70
11836;DHT22;5977;51.972;7.640;2023-07-13T15:05:19;24.50;78.20
11836;DHT22;5977;51.972;7.640;2023-07-13T15:07:48;24.40;79.10
11836;DHT22;5977;51.972;7.640;2023-07-13T15:10:18;24.60;79.40
11836;DHT22;5977;51.972;7.640;2023-07-13T15:12:46;24.60;78.50
11836;DHT22;5977;51.972;7.640;2023-07-13T15:15:15;24.50;79.20
11836;DHT22;5977;51.972;7.640;2023-07-13T15:17:46;24.70;78.60
11836;DHT22;5977;51.972;7.640;2023-07-13T15:20:21;24.70;78.40
11836;DHT22;5977;51.972;7.640;2023-07-13T15:22:50;24.70;78.30
11836;DHT22;5977;51.972;7.640;2023-07-13T15:25:21;24.90;78.30
11836;DHT22;5977;51.972;7.640;2023-07-13T15:27:49;24.80;76.60
11836;DHT22;5977;51.972;7.640;2023-07-13T15:30:18;24.70;77.90
11836;DHT22;5977;51.972;7.640;2023-07-13T15:32:47;24.70;78.30
11836;DHT22;5977;51.972;7.640;2023-07-13T15:35:16;24.90;78.00
11836;DHT22;5977;51.972;7.640;2023-07-13T15:37:45;25.00;77.60
11836;DHT22;5977;51.972;7.640;2023-07-13T15:40:14;25.10;77.00
11836;DHT22;5977;51.972;7.640;2023-07-13T15:42:44;25.10;77.70
11836;DHT22;5977;51.972;7.640;2023-07-13T15:45:19;25.20;76.80
11836;DHT22;5977;51.972;7.640;2023-07-13T15:47:48;25.20;76.30
11836;DHT22;5977;51.972;7.640;2023-07-13T15:50:18;25.20;76.40
11836;DHT22;5977;51.972;7.640;2023-07-13T15:52:49;25.10;76.20
11836;DHT22;5977;51.972;7.640;2023-07-13T15:55:18;25.10;75.10
11836;DHT22;5977;51.972;7.640;2023-07-13T15:57:48;25.00;75.60
11836;DHT22;5977;51.972;7.640;2023-07-13T16:00:22;25.00;75.50
11836;DHT22;5977;51.972;7.640;2023-07-13T16:02:51;25.10;75.10
11836;DHT22;5977;51.972;7.640;2023-07-13T16:05:20;25.10;74.60
11836;DHT22;5977;51.972;7.640;2023-07-13T16:07:50;24.90;74.30